Hammondsville, Vermont
Current Conditions -  °F | °C
As of 1:54 AM on Sunday 26 Oct 2014 (Local Time) from KVSF Reporting Station
Haze Haze  
Wind Chill:   Ceiling: 200
Heat Index:   Visibility: 0.75mi
Dew Point:   Wind: 0mph
Humidity: 100%   Direction: NA
Pressure: 29.47"   Gusts: NA
Location:  43.4984°N, 72.5943°W
Report Text: KVSF 260554Z AUTO 00000KT 3/4SM BR VV002 05/05 A2947 RMK AO2 SLP980 60004 T00500050 10111 20050 58013
Loading
Personal Weather Stations






























Interactive Weather Map
Tropical Storm Tracking
New forecast layout! Learn more

10-Day Weather Forecast

Advertisements
Track Severe Weather on mobile